sensor_id;sensor_type;location;lat;lon;timestamp;pressure;altitude;pressure_sealevel;temperature;humidity
78073;BME280;67281;48.770;11.440;2023-11-19T00:01:51;97283.97;;;13.51;54.19
78073;BME280;67281;48.770;11.440;2023-11-19T00:04:18;97279.34;;;13.43;54.41
78073;BME280;67281;48.770;11.440;2023-11-19T00:06:45;97271.56;;;13.42;53.82
78073;BME280;67281;48.770;11.440;2023-11-19T00:09:15;97284.94;;;13.50;53.93
78073;BME280;67281;48.770;11.440;2023-11-19T00:11:43;97261.03;;;13.42;54.19
78073;BME280;67281;48.770;11.440;2023-11-19T00:14:20;97258.88;;;13.47;54.04
78073;BME280;67281;48.770;11.440;2023-11-19T00:16:47;97257.19;;;13.46;53.74
78073;BME280;67281;48.770;11.440;2023-11-19T00:19:18;97252.19;;;13.43;54.14
78073;BME280;67281;48.770;11.440;2023-11-19T00:21:46;97246.19;;;13.41;54.04
78073;BME280;67281;48.770;11.440;2023-11-19T00:24:13;97255.53;;;13.45;54.11
78073;BME280;67281;48.770;11.440;2023-11-19T00:26:44;97247.03;;;13.41;54.33
78073;BME280;67281;48.770;11.440;2023-11-19T00:29:11;97249.88;;;13.49;53.65
78073;BME280;67281;48.770;11.440;2023-11-19T00:31:40;97238.88;;;13.44;54.00
78073;BME280;67281;48.770;11.440;2023-11-19T00:34:07;97243.31;;;13.44;53.93
78073;BME280;67281;48.770;11.440;2023-11-19T00:36:34;97233.88;;;13.41;54.18
78073;BME280;67281;48.770;11.440;2023-11-19T00:39:01;97227.53;;;13.44;54.14
78073;BME280;67281;48.770;11.440;2023-11-19T00:41:29;97225.41;;;13.38;54.13
78073;BME280;67281;48.770;11.440;2023-11-19T00:43:56;97227.78;;;13.41;54.54
78073;BME280;67281;48.770;11.440;2023-11-19T00:46:26;97226.09;;;13.40;53.73
78073;BME280;67281;48.770;11.440;2023-11-19T00:48:53;97218.91;;;13.42;54.01
78073;BME280;67281;48.770;11.440;2023-11-19T00:51:20;97207.69;;;13.40;54.29
78073;BME280;67281;48.770;11.440;2023-11-19T00:53:47;97205.75;;;13.42;53.61
78073;BME280;67281;48.770;11.440;2023-11-19T00:56:14;97203.34;;;13.50;54.49
78073;BME280;67281;48.770;11.440;2023-11-19T00:58:41;97201.22;;;13.44;53.78
78073;BME280;67281;48.770;11.440;2023-11-19T01:01:09;97196.19;;;13.41;54.17
78073;BME280;67281;48.770;11.440;2023-11-19T01:03:36;97208.84;;;13.47;54.07
78073;BME280;67281;48.770;11.440;2023-11-19T01:06:04;97210.06;;;13.43;53.60
78073;BME280;67281;48.770;11.440;2023-11-19T01:08:31;97197.03;;;13.41;53.89
78073;BME280;67281;48.770;11.440;2023-11-19T01:10:58;97189.00;;;13.43;53.82
78073;BME280;67281;48.770;11.440;2023-11-19T01:13:26;97202.28;;;13.41;54.24
78073;BME280;67281;48.770;11.440;2023-11-19T01:15:55;97197.03;;;13.41;53.98
78073;BME280;67281;48.770;11.440;2023-11-19T01:18:23;97186.63;;;13.40;53.57
78073;BME280;67281;48.770;11.440;2023-11-19T01:20:51;97191.91;;;13.40;53.74
78073;BME280;67281;48.770;11.440;2023-11-19T01:23:21;97184.28;;;13.37;54.05
78073;BME280;67281;48.770;11.440;2023-11-19T01:25:48;97194.97;;;13.45;53.74
78073;BME280;67281;48.770;11.440;2023-11-19T01:28:16;97187.22;;;13.43;53.71
78073;BME280;67281;48.770;11.440;2023-11-19T01:30:43;97178.72;;;13.40;53.79
78073;BME280;67281;48.770;11.440;2023-11-19T01:33:11;97177.06;;;13.39;53.98
78073;BME280;67281;48.770;11.440;2023-11-19T01:35:38;97193.19;;;13.45;54.03
78073;BME280;67281;48.770;11.440;2023-11-19T01:38:06;97186.25;;;13.44;54.16
78073;BME280;67281;48.770;11.440;2023-11-19T01:40:35;97188.75;;;13.46;54.10
78073;BME280;67281;48.770;11.440;2023-11-19T01:43:05;97180.66;;;13.38;54.33
78073;BME280;67281;48.770;11.440;2023-11-19T01:45:33;97163.78;;;13.40;53.64
78073;BME280;67281;48.770;11.440;2023-11-19T01:48:03;97175.13;;;13.41;54.01
78073;BME280;67281;48.770;11.440;2023-11-19T01:50:31;97175.72;;;13.44;53.74
78073;BME280;67281;48.770;11.440;2023-11-19T01:52:59;97164.34;;;13.44;54.00
78073;BME280;67281;48.770;11.440;2023-11-19T01:55:28;97161.97;;;13.41;53.96
78073;BME280;67281;48.770;11.440;2023-11-19T01:57:59;97165.31;;;13.43;54.13
78073;BME280;67281;48.770;11.440;2023-11-19T02:00:31;97152.53;;;13.38;53.97
78073;BME280;67281;48.770;11.440;2023-11-19T02:03:00;97147.16;;;13.40;53.70
78073;BME280;67281;48.770;11.440;2023-11-19T02:05:28;97126.50;;;13.35;54.08
78073;BME280;67281;48.770;11.440;2023-11-19T02:07:55;97128.72;;;13.40;53.91
78073;BME280;67281;48.770;11.440;2023-11-19T02:10:22;97124.72;;;13.36;53.81
78073;BME280;67281;48.770;11.440;2023-11-19T02:12:51;97129.69;;;13.39;54.26
78073;BME280;67281;48.770;11.440;2023-11-19T02:15:19;97122.75;;;13.38;54.20
78073;BME280;67281;48.770;11.440;2023-11-19T02:17:46;97116.41;;;13.40;53.47
78073;BME280;67281;48.770;11.440;2023-11-19T02:20:13;97100.06;;;13.37;54.42
78073;BME280;67281;48.770;11.440;2023-11-19T02:22:42;97102.69;;;13.37;53.81
78073;BME280;67281;48.770;11.440;2023-11-19T02:25:17;97097.44;;;13.37;54.22
78073;BME280;67281;48.770;11.440;2023-11-19T02:27:59;97094.09;;;13.35;53.82
78073;BME280;67281;48.770;11.440;2023-11-19T02:30:27;97088.97;;;13.33;53.74
78073;BME280;67281;48.770;11.440;2023-11-19T02:32:56;97088.72;;;13.36;53.90
78073;BME280;67281;48.770;11.440;2023-11-19T02:35:25;97090.75;;;13.33;54.48
78073;BME280;67281;48.770;11.440;2023-11-19T02:37:59;97093.97;;;13.36;53.77
78073;BME280;67281;48.770;11.440;2023-11-19T02:40:27;97092.31;;;13.35;54.13
78073;BME280;67281;48.770;11.440;2023-11-19T02:42:55;97090.34;;;13.37;53.89
78073;BME280;67281;48.770;11.440;2023-11-19T02:45:25;97087.88;;;13.36;53.71
78073;BME280;67281;48.770;11.440;2023-11-19T02:47:53;97070.66;;;13.32;53.75
78073;BME280;67281;48.770;11.440;2023-11-19T02:50:22;97072.91;;;13.36;54.30
78073;BME280;67281;48.770;11.440;2023-11-19T02:52:54;97071.38;;;13.34;54.14
78073;BME280;67281;48.770;11.440;2023-11-19T02:55:24;97064.56;;;13.31;53.75
78073;BME280;67281;48.770;11.440;2023-11-19T02:57:52;97074.00;;;13.34;53.96
78073;BME280;67281;48.770;11.440;2023-11-19T03:00:22;97074.00;;;13.34;54.11
78073;BME280;67281;48.770;11.440;2023-11-19T03:03:01;97068.16;;;13.30;54.31
78073;BME280;67281;48.770;11.440;2023-11-19T03:05:48;97072.09;;;13.36;54.03
78073;BME280;67281;48.770;11.440;2023-11-19T03:08:15;97060.16;;;13.32;54.42
78073;BME280;67281;48.770;11.440;2023-11-19T03:10:46;97065.16;;;13.35;53.92
78073;BME280;67281;48.770;11.440;2023-11-19T03:13:13;97053.66;;;13.36;54.04
78073;BME280;67281;48.770;11.440;2023-11-19T03:15:41;97050.31;;;13.34;53.95
78073;BME280;67281;48.770;11.440;2023-11-19T03:18:08;97064.88;;;13.38;53.73
78073;BME280;67281;48.770;11.440;2023-11-19T03:20:36;97065.03;;;13.36;54.10
78073;BME280;67281;48.770;11.440;2023-11-19T03:23:03;97057.38;;;13.33;53.96
78073;BME280;67281;48.770;11.440;2023-11-19T03:25:30;97050.06;;;13.37;53.87
78073;BME280;67281;48.770;11.440;2023-11-19T03:28:00;97062.53;;;13.35;54.31
78073;BME280;67281;48.770;11.440;2023-11-19T03:30:30;97051.28;;;13.33;54.07
78073;BME280;67281;48.770;11.440;2023-11-19T03:33:01;97054.06;;;13.31;53.77
78073;BME280;67281;48.770;11.440;2023-11-19T03:35:30;97069.44;;;13.36;53.72
78073;BME280;67281;48.770;11.440;2023-11-19T03:37:57;97058.34;;;13.32;54.16
78073;BME280;67281;48.770;11.440;2023-11-19T03:40:24;97045.56;;;13.28;53.82
78073;BME280;67281;48.770;11.440;2023-11-19T03:42:56;97056.69;;;13.31;54.38
78073;BME280;67281;48.770;11.440;2023-11-19T03:45:25;97041.28;;;13.27;54.20
78073;BME280;67281;48.770;11.440;2023-11-19T03:47:52;97054.06;;;13.31;53.78
78073;BME280;67281;48.770;11.440;2023-11-19T03:50:19;97056.56;;;13.33;54.60
78073;BME280;67281;48.770;11.440;2023-11-19T03:52:49;97055.13;;;13.29;54.14
78073;BME280;67281;48.770;11.440;2023-11-19T03:55:16;97058.59;;;13.29;54.50
78073;BME280;67281;48.770;11.440;2023-11-19T03:57:44;97051.09;;;13.25;53.93
78073;BME280;67281;48.770;11.440;2023-11-19T04:00:11;97072.47;;;13.31;54.08
78073;BME280;67281;48.770;11.440;2023-11-19T04:02:41;97062.31;;;13.27;53.95
78073;BME280;67281;48.770;11.440;2023-11-19T04:05:08;97067.59;;;13.27;54.10
78073;BME280;67281;48.770;11.440;2023-11-19T04:07:36;97059.81;;;13.25;53.97
78073;BME280;67281;48.770;11.440;2023-11-19T04:10:04;97055.53;;;13.24;54.66
78073;BME280;67281;48.770;11.440;2023-11-19T04:12:32;97055.41;;;13.26;53.80
78073;BME280;67281;48.770;11.440;2023-11-19T04:14:59;97057.91;;;13.27;53.88
78073;BME280;67281;48.770;11.440;2023-11-19T04:17:27;97057.91;;;13.27;53.99
78073;BME280;67281;48.770;11.440;2023-11-19T04:19:55;97055.66;;;13.23;54.36
78073;BME280;67281;48.770;11.440;2023-11-19T04:22:23;97057.31;;;13.24;54.41
78073;BME280;67281;48.770;11.440;2023-11-19T04:24:50;97051.59;;;13.19;54.28
78073;BME280;67281;48.770;11.440;2023-11-19T04:27:17;97042.50;;;13.23;53.98
78073;BME280;67281;48.770;11.440;2023-11-19T04:29:44;97024.34;;;13.20;54.12
78073;BME280;67281;48.770;11.440;2023-11-19T04:32:13;97031.72;;;13.26;53.88
78073;BME280;67281;48.770;11.440;2023-11-19T04:34:40;97008.56;;;13.20;54.34
78073;BME280;67281;48.770;11.440;2023-11-19T04:37:08;96999.69;;;13.21;54.44
78073;BME280;67281;48.770;11.440;2023-11-19T04:39:39;96991.09;;;13.19;54.13
78073;BME280;67281;48.770;11.440;2023-11-19T04:42:06;96986.94;;;13.16;54.28
78073;BME280;67281;48.770;11.440;2023-11-19T04:44:34;97010.94;;;13.23;54.70
78073;BME280;67281;48.770;11.440;2023-11-19T04:47:04;97021.44;;;13.23;54.39
78073;BME280;67281;48.770;11.440;2023-11-19T04:49:32;96992.06;;;13.18;54.33
78073;BME280;67281;48.770;11.440;2023-11-19T04:52:00;97003.41;;;13.18;54.41
78073;BME280;67281;48.770;11.440;2023-11-19T04:54:28;96989.31;;;13.19;54.16
78073;BME280;67281;48.770;11.440;2023-11-19T04:56:55;96980.81;;;13.15;53.94
78073;BME280;67281;48.770;11.440;2023-11-19T04:59:23;96983.34;;;13.17;54.21
78073;BME280;67281;48.770;11.440;2023-11-19T05:01:50;96983.22;;;13.19;54.27
78073;BME280;67281;48.770;11.440;2023-11-19T05:04:17;96972.09;;;13.15;54.59
78073;BME280;67281;48.770;11.440;2023-11-19T05:06:46;96974.47;;;13.18;54.53
78073;BME280;67281;48.770;11.440;2023-11-19T05:09:13;96986.19;;;13.14;54.42
78073;BME280;67281;48.770;11.440;2023-11-19T05:11:40;97007.59;;;13.21;54.99
78073;BME280;67281;48.770;11.440;2023-11-19T05:14:10;97009.38;;;13.20;54.28
78073;BME280;67281;48.770;11.440;2023-11-19T05:16:39;97019.34;;;13.17;54.91
78073;BME280;67281;48.770;11.440;2023-11-19T05:19:07;97019.06;;;13.20;54.51
78073;BME280;67281;48.770;11.440;2023-11-19T05:21:34;96988.25;;;13.10;54.86
78073;BME280;67281;48.770;11.440;2023-11-19T05:24:03;97026.13;;;13.19;54.68
78073;BME280;67281;48.770;11.440;2023-11-19T05:26:33;97009.25;;;13.22;54.86
78073;BME280;67281;48.770;11.440;2023-11-19T05:29:01;97026.97;;;13.20;54.94
78073;BME280;67281;48.770;11.440;2023-11-19T05:31:28;97037.63;;;13.18;54.50
78073;BME280;67281;48.770;11.440;2023-11-19T05:33:58;97029.84;;;13.17;54.76
78073;BME280;67281;48.770;11.440;2023-11-19T05:36:25;97019.34;;;13.17;54.19
78073;BME280;67281;48.770;11.440;2023-11-19T05:38:55;97023.03;;;13.14;54.72
78073;BME280;67281;48.770;11.440;2023-11-19T05:41:22;97014.56;;;13.10;54.72
78073;BME280;67281;48.770;11.440;2023-11-19T05:43:50;97017.06;;;13.12;54.96
78073;BME280;67281;48.770;11.440;2023-11-19T05:46:17;97012.75;;;13.11;54.97
78073;BME280;67281;48.770;11.440;2023-11-19T05:48:46;97016.22;;;13.11;54.83
78073;BME280;67281;48.770;11.440;2023-11-19T05:51:13;97015.13;;;13.14;54.85
78073;BME280;67281;48.770;11.440;2023-11-19T05:53:42;97016.94;;;13.13;55.32
78073;BME280;67281;48.770;11.440;2023-11-19T05:56:09;97018.72;;;13.13;55.38
78073;BME280;67281;48.770;11.440;2023-11-19T05:58:39;97010.97;;;13.11;54.81
78073;BME280;67281;48.770;11.440;2023-11-19T06:01:07;96993.38;;;13.12;55.06
78073;BME280;67281;48.770;11.440;2023-11-19T06:03:35;96978.81;;;13.08;55.33
78073;BME280;67281;48.770;11.440;2023-11-19T06:06:03;96987.69;;;13.07;55.05
78073;BME280;67281;48.770;11.440;2023-11-19T06:08:32;96981.56;;;13.06;55.58
78073;BME280;67281;48.770;11.440;2023-11-19T06:10:58;96988.50;;;13.07;55.43
78073;BME280;67281;48.770;11.440;2023-11-19T06:13:28;96983.94;;;13.09;55.61
78073;BME280;67281;48.770;11.440;2023-11-19T06:15:58;96974.66;;;13.05;55.22
78073;BME280;67281;48.770;11.440;2023-11-19T06:18:25;96971.06;;;13.06;54.90
78073;BME280;67281;48.770;11.440;2023-11-19T06:20:52;96985.50;;;13.12;55.12
78073;BME280;67281;48.770;11.440;2023-11-19T06:23:19;96977.84;;;13.09;55.59
78073;BME280;67281;48.770;11.440;2023-11-19T06:25:46;96993.97;;;13.15;55.47
78073;BME280;67281;48.770;11.440;2023-11-19T06:28:13;96970.09;;;13.07;55.49
78073;BME280;67281;48.770;11.440;2023-11-19T06:30:41;96989.91;;;13.11;55.64
78073;BME280;67281;48.770;11.440;2023-11-19T06:33:13;96986.59;;;13.09;55.87
78073;BME280;67281;48.770;11.440;2023-11-19T06:35:40;96978.94;;;13.06;55.91
78073;BME280;67281;48.770;11.440;2023-11-19T06:38:07;96991.84;;;13.09;55.93
78073;BME280;67281;48.770;11.440;2023-11-19T06:40:34;96998.78;;;13.10;55.90
78073;BME280;67281;48.770;11.440;2023-11-19T06:43:02;97012.63;;;13.12;55.70
78073;BME280;67281;48.770;11.440;2023-11-19T06:45:35;97012.63;;;13.12;56.16
78073;BME280;67281;48.770;11.440;2023-11-19T06:48:05;96995.69;;;13.05;55.97
78073;BME280;67281;48.770;11.440;2023-11-19T06:50:33;96986.84;;;13.06;55.80
78073;BME280;67281;48.770;11.440;2023-11-19T06:53:00;96994.34;;;13.11;56.16
78073;BME280;67281;48.770;11.440;2023-11-19T06:55:27;96993.25;;;13.13;55.88
78073;BME280;67281;48.770;11.440;2023-11-19T06:57:54;96987.28;;;13.11;55.89
78073;BME280;67281;48.770;11.440;2023-11-19T07:00:21;96992.06;;;13.18;56.08
78073;BME280;67281;48.770;11.440;2023-11-19T07:02:48;96990.41;;;13.17;56.09
78073;BME280;67281;48.770;11.440;2023-11-19T07:05:16;96982.25;;;13.20;55.74
78073;BME280;67281;48.770;11.440;2023-11-19T07:07:44;96994.09;;;13.14;55.89
78073;BME280;67281;48.770;11.440;2023-11-19T07:10:13;96990.75;;;13.12;56.54
78073;BME280;67281;48.770;11.440;2023-11-19T07:12:42;96988.97;;;13.12;56.15
78073;BME280;67281;48.770;11.440;2023-11-19T07:15:10;97004.47;;;13.15;56.46
78073;BME280;67281;48.770;11.440;2023-11-19T07:17:39;96989.22;;;13.09;56.23
78073;BME280;67281;48.770;11.440;2023-11-19T07:20:10;97005.56;;;13.13;55.98
78073;BME280;67281;48.770;11.440;2023-11-19T07:22:43;97006.53;;;13.12;56.34
78073;BME280;67281;48.770;11.440;2023-11-19T07:25:15;97010.00;;;13.12;56.86
78073;BME280;67281;48.770;11.440;2023-11-19T07:27:42;97018.50;;;13.16;56.47
78073;BME280;67281;48.770;11.440;2023-11-19T07:30:10;97023.03;;;13.14;56.52
78073;BME280;67281;48.770;11.440;2023-11-19T07:32:37;97006.66;;;13.10;56.63
78073;BME280;67281;48.770;11.440;2023-11-19T07:35:07;97027.09;;;13.18;56.82
78073;BME280;67281;48.770;11.440;2023-11-19T07:37:34;97016.22;;;13.11;56.32
78073;BME280;67281;48.770;11.440;2023-11-19T07:40:03;97016.94;;;13.13;56.44
78073;BME280;67281;48.770;11.440;2023-11-19T07:42:33;97010.22;;;13.21;56.90
78073;BME280;67281;48.770;11.440;2023-11-19T07:45:00;97006.28;;;13.15;57.38
78073;BME280;67281;48.770;11.440;2023-11-19T07:47:32;97015.47;;;13.21;56.95
78073;BME280;67281;48.770;11.440;2023-11-19T07:50:01;97017.41;;;13.19;57.23
78073;BME280;67281;48.770;11.440;2023-11-19T07:52:29;97001.38;;;13.22;57.60
78073;BME280;67281;48.770;11.440;2023-11-19T07:54:58;97016.69;;;13.17;57.48
78073;BME280;67281;48.770;11.440;2023-11-19T07:57:28;97023.16;;;13.12;57.69
78073;BME280;67281;48.770;11.440;2023-11-19T07:59:58;97034.16;;;13.18;57.52
78073;BME280;67281;48.770;11.440;2023-11-19T08:02:28;97038.06;;;13.23;57.73
78073;BME280;67281;48.770;11.440;2023-11-19T08:04:58;97022.91;;;13.15;57.35
78073;BME280;67281;48.770;11.440;2023-11-19T08:07:28;97034.28;;;13.16;57.81
78073;BME280;67281;48.770;11.440;2023-11-19T08:09:56;97036.97;;;13.26;57.71
78073;BME280;67281;48.770;11.440;2023-11-19T08:12:23;97035.31;;;13.25;57.53
78073;BME280;67281;48.770;11.440;2023-11-19T08:14:54;97029.47;;;13.21;57.39
78073;BME280;67281;48.770;11.440;2023-11-19T08:17:21;97036.28;;;13.24;57.39
78073;BME280;67281;48.770;11.440;2023-11-19T08:19:50;97044.63;;;13.29;57.74
78073;BME280;67281;48.770;11.440;2023-11-19T08:22:17;97042.94;;;13.28;58.14
78073;BME280;67281;48.770;11.440;2023-11-19T08:24:44;97026.59;;;13.24;58.13
78073;BME280;67281;48.770;11.440;2023-11-19T08:27:11;97032.56;;;13.26;57.95
78073;BME280;67281;48.770;11.440;2023-11-19T08:29:38;97035.50;;;13.33;58.10
78073;BME280;67281;48.770;11.440;2023-11-19T08:32:05;97041.72;;;13.32;58.45
78073;BME280;67281;48.770;11.440;2023-11-19T08:34:33;97041.84;;;13.30;58.23
78073;BME280;67281;48.770;11.440;2023-11-19T08:37:00;97034.78;;;13.31;58.12
78073;BME280;67281;48.770;11.440;2023-11-19T08:39:27;97038.97;;;13.33;57.97
78073;BME280;67281;48.770;11.440;2023-11-19T08:41:54;97035.66;;;13.41;58.54
78073;BME280;67281;48.770;11.440;2023-11-19T08:44:24;97031.34;;;13.40;57.88
78073;BME280;67281;48.770;11.440;2023-11-19T08:46:52;97047.03;;;13.41;58.26
78073;BME280;67281;48.770;11.440;2023-11-19T08:49:18;97041.88;;;13.40;58.26
78073;BME280;67281;48.770;11.440;2023-11-19T08:51:46;97046.88;;;13.43;58.05
78073;BME280;67281;48.770;11.440;2023-11-19T08:54:13;97059.91;;;13.44;58.28
78073;BME280;67281;48.770;11.440;2023-11-19T08:56:43;97055.63;;;13.43;57.94
78073;BME280;67281;48.770;11.440;2023-11-19T08:59:10;97042.47;;;13.43;58.35
78073;BME280;67281;48.770;11.440;2023-11-19T09:01:37;97055.22;;;13.48;58.42
78073;BME280;67281;48.770;11.440;2023-11-19T09:04:04;97046.38;;;13.49;58.08
78073;BME280;67281;48.770;11.440;2023-11-19T09:06:32;97040.97;;;13.51;58.75
78073;BME280;67281;48.770;11.440;2023-11-19T09:08:58;97049.69;;;13.51;58.52
78073;BME280;67281;48.770;11.440;2023-11-19T09:11:29;97055.94;;;13.50;58.80
78073;BME280;67281;48.770;11.440;2023-11-19T09:13:57;97030.31;;;13.52;59.07
78073;BME280;67281;48.770;11.440;2023-11-19T09:16:27;97036.28;;;13.54;59.05
78073;BME280;67281;48.770;11.440;2023-11-19T09:18:54;97037.94;;;13.55;58.90
78073;BME280;67281;48.770;11.440;2023-11-19T09:21:30;97032.03;;;13.63;58.17
78073;BME280;67281;48.770;11.440;2023-11-19T09:23:57;97029.41;;;13.63;58.37
78073;BME280;67281;48.770;11.440;2023-11-19T09:26:23;97014.31;;;13.65;58.96
78073;BME280;67281;48.770;11.440;2023-11-19T09:28:51;97028.16;;;13.67;58.51
78073;BME280;67281;48.770;11.440;2023-11-19T09:31:18;97037.34;;;13.72;58.65
78073;BME280;67281;48.770;11.440;2023-11-19T09:33:45;97047.16;;;13.70;58.84
78073;BME280;67281;48.770;11.440;2023-11-19T09:36:12;97052.19;;;13.73;58.73
78073;BME280;67281;48.770;11.440;2023-11-19T09:38:43;97060.22;;;13.72;59.00
78073;BME280;67281;48.770;11.440;2023-11-19T09:41:10;97046.59;;;13.67;59.23
78073;BME280;67281;48.770;11.440;2023-11-19T09:43:40;97051.72;;;13.68;59.66
78073;BME280;67281;48.770;11.440;2023-11-19T09:46:13;97051.47;;;13.71;59.03
78073;BME280;67281;48.770;11.440;2023-11-19T09:48:40;97046.47;;;13.68;59.72
78073;BME280;67281;48.770;11.440;2023-11-19T09:51:09;97047.63;;;13.75;60.09
78073;BME280;67281;48.770;11.440;2023-11-19T09:53:38;97044.16;;;13.75;59.36
78073;BME280;67281;48.770;11.440;2023-11-19T09:56:05;97042.59;;;13.72;59.41
78073;BME280;67281;48.770;11.440;2023-11-19T09:58:34;97035.16;;;13.77;59.43
78073;BME280;67281;48.770;11.440;2023-11-19T10:01:02;97041.25;;;13.78;60.09
78073;BME280;67281;48.770;11.440;2023-11-19T10:03:40;97021.97;;;13.77;59.44
78073;BME280;67281;48.770;11.440;2023-11-19T10:06:08;97020.75;;;13.81;59.39
78073;BME280;67281;48.770;11.440;2023-11-19T10:08:41;97024.22;;;13.82;59.76
78073;BME280;67281;48.770;11.440;2023-11-19T10:11:10;97005.09;;;13.80;59.98
78073;BME280;67281;48.770;11.440;2023-11-19T10:13:42;97007.44;;;13.83;59.92
78073;BME280;67281;48.770;11.440;2023-11-19T10:16:12;97007.63;;;13.91;59.68
78073;BME280;67281;48.770;11.440;2023-11-19T10:18:45;97000.97;;;13.97;59.87
78073;BME280;67281;48.770;11.440;2023-11-19T10:21:13;97012.91;;;14.01;60.01
78073;BME280;67281;48.770;11.440;2023-11-19T10:23:51;97005.28;;;13.98;60.10
78073;BME280;67281;48.770;11.440;2023-11-19T10:26:20;97005.97;;;14.00;60.68
78073;BME280;67281;48.770;11.440;2023-11-19T10:28:47;97012.22;;;13.99;60.07
78073;BME280;67281;48.770;11.440;2023-11-19T10:31:15;97000.16;;;13.96;60.58
78073;BME280;67281;48.770;11.440;2023-11-19T10:33:46;97006.25;;;13.97;60.30
78073;BME280;67281;48.770;11.440;2023-11-19T10:36:14;96997.66;;;13.95;60.28
78073;BME280;67281;48.770;11.440;2023-11-19T10:38:51;96998.91;;;14.00;61.11
78073;BME280;67281;48.770;11.440;2023-11-19T10:41:31;97001.69;;;13.99;61.06
78073;BME280;67281;48.770;11.440;2023-11-19T10:43:59;97004.31;;;13.99;60.27
78073;BME280;67281;48.770;11.440;2023-11-19T10:46:37;97001.28;;;14.03;60.21
78073;BME280;67281;48.770;11.440;2023-11-19T10:49:09;97009.75;;;14.07;60.74
78073;BME280;67281;48.770;11.440;2023-11-19T10:51:43;97005.16;;;14.09;61.70
78073;BME280;67281;48.770;11.440;2023-11-19T10:54:15;96993.25;;;14.05;62.18
78073;BME280;67281;48.770;11.440;2023-11-19T10:56:51;96991.56;;;14.04;62.14
78073;BME280;67281;48.770;11.440;2023-11-19T10:59:21;96982.84;;;14.03;61.53
78073;BME280;67281;48.770;11.440;2023-11-19T11:01:54;96981.88;;;14.04;62.05
78073;BME280;67281;48.770;11.440;2023-11-19T11:04:25;96982.84;;;14.23;62.35
78073;BME280;67281;48.770;11.440;2023-11-19T11:06:58;96990.91;;;14.31;62.76
78073;BME280;67281;48.770;11.440;2023-11-19T11:09:44;96981.59;;;14.27;62.55
78073;BME280;67281;48.770;11.440;2023-11-19T11:12:13;96977.03;;;14.29;63.13
78073;BME280;67281;48.770;11.440;2023-11-19T11:14:44;96985.63;;;14.31;62.87
78073;BME280;67281;48.770;11.440;2023-11-19T11:17:17;96976.34;;;14.36;63.58
78073;BME280;67281;48.770;11.440;2023-11-19T11:19:45;96977.19;;;14.37;62.99
78073;BME280;67281;48.770;11.440;2023-11-19T11:22:14;96978.97;;;14.36;61.70
78073;BME280;67281;48.770;11.440;2023-11-19T11:25:42;96976.47;;;14.35;63.29
78073;BME280;67281;48.770;11.440;2023-11-19T11:31:25;96978.69;;;14.30;62.75
78073;BME280;67281;48.770;11.440;2023-11-19T11:39:34;96971.06;;;14.36;63.04
78073;BME280;67281;48.770;11.440;2023-11-19T11:44:58;96957.63;;;14.39;63.63
78073;BME280;67281;48.770;11.440;2023-11-19T11:50:13;96961.81;;;14.42;63.68
78073;BME280;67281;48.770;11.440;2023-11-19T11:55:29;96963.63;;;14.61;64.53
78073;BME280;67281;48.770;11.440;2023-11-19T11:58:00;96966.25;;;14.61;63.85
78073;BME280;67281;48.770;11.440;2023-11-19T12:00:30;96960.84;;;14.62;63.73
78073;BME280;67281;48.770;11.440;2023-11-19T12:03:05;96959.88;;;14.63;64.01
78073;BME280;67281;48.770;11.440;2023-11-19T12:05:33;96957.38;;;14.71;62.88
78073;BME280;67281;48.770;11.440;2023-11-19T12:08:04;96952.94;;;14.72;64.03
78073;BME280;67281;48.770;11.440;2023-11-19T12:10:44;96949.72;;;14.78;62.71
78073;BME280;67281;48.770;11.440;2023-11-19T12:13:11;96945.44;;;14.77;62.66
78073;BME280;67281;48.770;11.440;2023-11-19T12:18:29;96945.00;;;14.82;64.20
78073;BME280;67281;48.770;11.440;2023-11-19T12:20:59;96933.63;;;14.81;61.17
78073;BME280;67281;48.770;11.440;2023-11-19T12:23:29;96933.16;;;14.86;60.64
78073;BME280;67281;48.770;11.440;2023-11-19T12:25:57;96951.22;;;14.90;60.38
78073;BME280;67281;48.770;11.440;2023-11-19T12:28:25;96934.19;;;14.85;61.15
78073;BME280;67281;48.770;11.440;2023-11-19T12:31:07;96943.44;;;14.89;59.51
78073;BME280;67281;48.770;11.440;2023-11-19T12:33:36;96929.56;;;14.87;61.04
78073;BME280;67281;48.770;11.440;2023-11-19T12:36:05;96928.59;;;14.88;60.14
78073;BME280;67281;48.770;11.440;2023-11-19T12:38:32;96915.41;;;14.88;60.78
78073;BME280;67281;48.770;11.440;2023-11-19T12:41:08;96924.00;;;14.90;62.33
78073;BME280;67281;48.770;11.440;2023-11-19T12:43:38;96911.34;;;14.93;61.04
78073;BME280;67281;48.770;11.440;2023-11-19T12:46:19;96914.97;;;14.92;61.36
78073;BME280;67281;48.770;11.440;2023-11-19T12:48:50;96896.25;;;14.86;60.65
78073;BME280;67281;48.770;11.440;2023-11-19T12:51:18;96915.41;;;14.88;61.53
78073;BME280;67281;48.770;11.440;2023-11-19T12:53:51;96913.91;;;14.85;63.16
78073;BME280;67281;48.770;11.440;2023-11-19T12:56:21;96907.81;;;14.85;63.86
78073;BME280;67281;48.770;11.440;2023-11-19T12:58:48;96919.19;;;14.85;62.70
78073;BME280;67281;48.770;11.440;2023-11-19T13:01:19;96906.78;;;14.86;64.22
78073;BME280;67281;48.770;11.440;2023-11-19T13:03:50;96918.19;;;14.86;64.71
78073;BME280;67281;48.770;11.440;2023-11-19T13:06:18;96910.44;;;14.85;65.16
78073;BME280;67281;48.770;11.440;2023-11-19T13:08:49;96920.81;;;14.86;64.47
78073;BME280;67281;48.770;11.440;2023-11-19T13:11:31;96925.09;;;14.97;64.87
78073;BME280;67281;48.770;11.440;2023-11-19T13:14:01;96908.44;;;14.96;63.87
78073;BME280;67281;48.770;11.440;2023-11-19T13:16:32;96908.00;;;15.01;64.63
78073;BME280;67281;48.770;11.440;2023-11-19T13:19:05;96910.78;;;14.99;63.84
78073;BME280;67281;48.770;11.440;2023-11-19T13:21:34;96911.47;;;15.01;63.41